sensor_id;sensor_type;location;lat;lon;timestamp;P1;durP1;ratioP1;P2;durP2;ratioP2
28459;SDS011;32528;45.712;9.192;2023-01-26T00:01:34;43.97;;;21.63;;
28459;SDS011;32528;45.712;9.192;2023-01-26T00:03:34;38.55;;;21.25;;
28459;SDS011;32528;45.712;9.192;2023-01-26T00:05:36;37.13;;;20.83;;
28459;SDS011;32528;45.712;9.192;2023-01-26T00:07:37;34.78;;;18.25;;
28459;SDS011;32528;45.712;9.192;2023-01-26T00:09:41;36.30;;;21.10;;
28459;SDS011;32528;45.712;9.192;2023-01-26T00:11:42;34.80;;;19.52;;
28459;SDS011;32528;45.712;9.192;2023-01-26T00:13:43;49.17;;;20.30;;
28459;SDS011;32528;45.712;9.192;2023-01-26T00:15:44;37.95;;;18.00;;
28459;SDS011;32528;45.712;9.192;2023-01-26T00:17:45;42.60;;;22.83;;
28459;SDS011;32528;45.712;9.192;2023-01-26T00:19:46;41.30;;;19.92;;
28459;SDS011;32528;45.712;9.192;2023-01-26T00:21:47;35.85;;;20.20;;
28459;SDS011;32528;45.712;9.192;2023-01-26T00:23:48;37.28;;;19.63;;
28459;SDS011;32528;45.712;9.192;2023-01-26T00:25:50;33.00;;;19.25;;
28459;SDS011;32528;45.712;9.192;2023-01-26T00:27:51;38.38;;;19.35;;
28459;SDS011;32528;45.712;9.192;2023-01-26T00:29:51;32.63;;;17.98;;
28459;SDS011;32528;45.712;9.192;2023-01-26T00:31:52;47.28;;;20.27;;
28459;SDS011;32528;45.712;9.192;2023-01-26T00:33:54;39.00;;;22.38;;
28459;SDS011;32528;45.712;9.192;2023-01-26T00:35:55;41.67;;;22.10;;
28459;SDS011;32528;45.712;9.192;2023-01-26T00:37:56;35.80;;;23.42;;
28459;SDS011;32528;45.712;9.192;2023-01-26T00:39:57;36.10;;;20.98;;
28459;SDS011;32528;45.712;9.192;2023-01-26T00:41:58;43.95;;;21.55;;
28459;SDS011;32528;45.712;9.192;2023-01-26T00:44:10;36.00;;;21.45;;
28459;SDS011;32528;45.712;9.192;2023-01-26T00:46:11;38.92;;;22.65;;
28459;SDS011;32528;45.712;9.192;2023-01-26T00:48:11;43.42;;;21.77;;
28459;SDS011;32528;45.712;9.192;2023-01-26T00:50:12;36.35;;;19.65;;
28459;SDS011;32528;45.712;9.192;2023-01-26T00:52:14;39.00;;;20.58;;
28459;SDS011;32528;45.712;9.192;2023-01-26T00:54:15;36.17;;;19.95;;
28459;SDS011;32528;45.712;9.192;2023-01-26T00:56:16;41.05;;;19.15;;
28459;SDS011;32528;45.712;9.192;2023-01-26T00:58:17;34.25;;;18.77;;
28459;SDS011;32528;45.712;9.192;2023-01-26T01:00:17;33.65;;;17.83;;
28459;SDS011;32528;45.712;9.192;2023-01-26T01:02:19;31.30;;;17.50;;
28459;SDS011;32528;45.712;9.192;2023-01-26T01:04:20;33.95;;;18.25;;
28459;SDS011;32528;45.712;9.192;2023-01-26T01:06:20;42.55;;;17.60;;
28459;SDS011;32528;45.712;9.192;2023-01-26T01:08:24;36.63;;;16.02;;
28459;SDS011;32528;45.712;9.192;2023-01-26T01:10:24;31.50;;;18.75;;
28459;SDS011;32528;45.712;9.192;2023-01-26T01:12:28;30.65;;;18.02;;
28459;SDS011;32528;45.712;9.192;2023-01-26T01:14:29;35.70;;;19.17;;
28459;SDS011;32528;45.712;9.192;2023-01-26T01:16:29;33.58;;;17.05;;
28459;SDS011;32528;45.712;9.192;2023-01-26T01:18:30;31.10;;;16.95;;
28459;SDS011;32528;45.712;9.192;2023-01-26T01:20:31;31.60;;;18.13;;
28459;SDS011;32528;45.712;9.192;2023-01-26T01:22:32;33.47;;;18.50;;
28459;SDS011;32528;45.712;9.192;2023-01-26T01:24:33;29.95;;;17.67;;
28459;SDS011;32528;45.712;9.192;2023-01-26T01:26:34;34.25;;;17.73;;
28459;SDS011;32528;45.712;9.192;2023-01-26T01:28:35;33.67;;;19.55;;
28459;SDS011;32528;45.712;9.192;2023-01-26T01:30:36;34.10;;;17.75;;
28459;SDS011;32528;45.712;9.192;2023-01-26T01:32:37;26.80;;;16.35;;
28459;SDS011;32528;45.712;9.192;2023-01-26T01:34:38;36.08;;;19.52;;
28459;SDS011;32528;45.712;9.192;2023-01-26T01:36:39;35.83;;;19.80;;
28459;SDS011;32528;45.712;9.192;2023-01-26T01:38:40;39.83;;;18.83;;
28459;SDS011;32528;45.712;9.192;2023-01-26T01:40:42;35.38;;;18.20;;
28459;SDS011;32528;45.712;9.192;2023-01-26T01:42:47;28.08;;;16.58;;
28459;SDS011;32528;45.712;9.192;2023-01-26T01:45:23;34.00;;;16.52;;
28459;SDS011;32528;45.712;9.192;2023-01-26T01:47:27;34.65;;;20.05;;
28459;SDS011;32528;45.712;9.192;2023-01-26T01:49:29;29.08;;;16.02;;
28459;SDS011;32528;45.712;9.192;2023-01-26T01:51:42;31.00;;;16.95;;
28459;SDS011;32528;45.712;9.192;2023-01-26T01:53:48;45.22;;;19.02;;
28459;SDS011;32528;45.712;9.192;2023-01-26T01:55:52;36.08;;;18.67;;
28459;SDS011;32528;45.712;9.192;2023-01-26T01:58:01;31.20;;;17.67;;
28459;SDS011;32528;45.712;9.192;2023-01-26T02:00:05;36.53;;;17.65;;
28459;SDS011;32528;45.712;9.192;2023-01-26T02:02:15;38.17;;;17.88;;
28459;SDS011;32528;45.712;9.192;2023-01-26T02:04:17;37.63;;;18.88;;
28459;SDS011;32528;45.712;9.192;2023-01-26T02:06:26;28.73;;;16.67;;
28459;SDS011;32528;45.712;9.192;2023-01-26T02:08:44;31.80;;;16.52;;
28459;SDS011;32528;45.712;9.192;2023-01-26T02:10:47;28.85;;;16.50;;
28459;SDS011;32528;45.712;9.192;2023-01-26T02:12:50;36.72;;;17.08;;
28459;SDS011;32528;45.712;9.192;2023-01-26T02:14:56;33.58;;;17.23;;
28459;SDS011;32528;45.712;9.192;2023-01-26T02:16:57;44.55;;;21.08;;
28459;SDS011;32528;45.712;9.192;2023-01-26T02:18:58;36.67;;;18.67;;
28459;SDS011;32528;45.712;9.192;2023-01-26T02:20:59;30.42;;;19.25;;
28459;SDS011;32528;45.712;9.192;2023-01-26T02:23:22;38.88;;;20.98;;
28459;SDS011;32528;45.712;9.192;2023-01-26T02:27:56;32.40;;;19.63;;
28459;SDS011;32528;45.712;9.192;2023-01-26T02:29:57;28.40;;;17.42;;
28459;SDS011;32528;45.712;9.192;2023-01-26T02:32:01;29.15;;;17.95;;
28459;SDS011;32528;45.712;9.192;2023-01-26T02:34:02;39.92;;;20.58;;
28459;SDS011;32528;45.712;9.192;2023-01-26T02:36:03;43.10;;;19.70;;
28459;SDS011;32528;45.712;9.192;2023-01-26T02:38:07;46.53;;;18.77;;
28459;SDS011;32528;45.712;9.192;2023-01-26T02:42:37;32.43;;;18.10;;
28459;SDS011;32528;45.712;9.192;2023-01-26T02:44:38;35.28;;;18.73;;
28459;SDS011;32528;45.712;9.192;2023-01-26T02:46:41;34.63;;;19.30;;
28459;SDS011;32528;45.712;9.192;2023-01-26T02:48:42;48.63;;;20.42;;
28459;SDS011;32528;45.712;9.192;2023-01-26T02:51:01;37.83;;;20.92;;
28459;SDS011;32528;45.712;9.192;2023-01-26T02:53:03;36.50;;;21.35;;
28459;SDS011;32528;45.712;9.192;2023-01-26T02:55:04;39.83;;;21.25;;
28459;SDS011;32528;45.712;9.192;2023-01-26T02:57:25;32.63;;;18.33;;
28459;SDS011;32528;45.712;9.192;2023-01-26T02:59:26;43.33;;;20.42;;
28459;SDS011;32528;45.712;9.192;2023-01-26T03:01:27;31.08;;;17.48;;
28459;SDS011;32528;45.712;9.192;2023-01-26T03:03:28;35.95;;;18.75;;
28459;SDS011;32528;45.712;9.192;2023-01-26T03:05:41;36.65;;;19.45;;
28459;SDS011;32528;45.712;9.192;2023-01-26T03:07:42;32.22;;;19.73;;
28459;SDS011;32528;45.712;9.192;2023-01-26T03:09:44;32.65;;;18.73;;
28459;SDS011;32528;45.712;9.192;2023-01-26T03:11:45;35.58;;;18.13;;
28459;SDS011;32528;45.712;9.192;2023-01-26T03:13:45;30.90;;;17.27;;
28459;SDS011;32528;45.712;9.192;2023-01-26T03:15:47;29.10;;;17.90;;
28459;SDS011;32528;45.712;9.192;2023-01-26T03:17:59;40.13;;;19.35;;
28459;SDS011;32528;45.712;9.192;2023-01-26T03:20:23;31.67;;;18.15;;
28459;SDS011;32528;45.712;9.192;2023-01-26T03:22:43;37.83;;;18.30;;
28459;SDS011;32528;45.712;9.192;2023-01-26T03:25:03;27.20;;;16.65;;
28459;SDS011;32528;45.712;9.192;2023-01-26T03:27:26;33.83;;;17.85;;
28459;SDS011;32528;45.712;9.192;2023-01-26T03:29:30;33.30;;;17.88;;
28459;SDS011;32528;45.712;9.192;2023-01-26T03:31:33;30.90;;;18.35;;
28459;SDS011;32528;45.712;9.192;2023-01-26T03:33:34;39.53;;;19.27;;
28459;SDS011;32528;45.712;9.192;2023-01-26T03:35:35;31.30;;;19.98;;
28459;SDS011;32528;45.712;9.192;2023-01-26T03:37:36;39.45;;;19.52;;
28459;SDS011;32528;45.712;9.192;2023-01-26T03:39:48;34.13;;;19.25;;
28459;SDS011;32528;45.712;9.192;2023-01-26T03:42:08;43.92;;;19.10;;
28459;SDS011;32528;45.712;9.192;2023-01-26T03:44:28;43.58;;;21.65;;
28459;SDS011;32528;45.712;9.192;2023-01-26T03:46:48;36.40;;;19.83;;
28459;SDS011;32528;45.712;9.192;2023-01-26T03:49:07;31.52;;;18.55;;
28459;SDS011;32528;45.712;9.192;2023-01-26T03:51:28;39.63;;;20.17;;
28459;SDS011;32528;45.712;9.192;2023-01-26T03:53:47;37.78;;;20.42;;
28459;SDS011;32528;45.712;9.192;2023-01-26T03:56:08;33.33;;;19.85;;
28459;SDS011;32528;45.712;9.192;2023-01-26T03:58:24;32.03;;;19.98;;
28459;SDS011;32528;45.712;9.192;2023-01-26T04:00:30;35.33;;;21.65;;
28459;SDS011;32528;45.712;9.192;2023-01-26T04:02:30;37.53;;;21.17;;
28459;SDS011;32528;45.712;9.192;2023-01-26T04:04:50;44.42;;;22.95;;
28459;SDS011;32528;45.712;9.192;2023-01-26T04:07:11;39.78;;;21.38;;
28459;SDS011;32528;45.712;9.192;2023-01-26T04:09:30;35.47;;;19.80;;
28459;SDS011;32528;45.712;9.192;2023-01-26T04:11:32;35.65;;;20.33;;
28459;SDS011;32528;45.712;9.192;2023-01-26T04:13:32;40.00;;;21.70;;
28459;SDS011;32528;45.712;9.192;2023-01-26T04:16:01;35.40;;;18.42;;
28459;SDS011;32528;45.712;9.192;2023-01-26T04:18:21;45.75;;;20.50;;
28459;SDS011;32528;45.712;9.192;2023-01-26T04:20:41;32.60;;;20.02;;
28459;SDS011;32528;45.712;9.192;2023-01-26T04:23:00;39.30;;;19.00;;
28459;SDS011;32528;45.712;9.192;2023-01-26T04:25:02;30.65;;;18.45;;
28459;SDS011;32528;45.712;9.192;2023-01-26T04:27:02;36.20;;;20.65;;
28459;SDS011;32528;45.712;9.192;2023-01-26T04:29:11;38.72;;;19.60;;
28459;SDS011;32528;45.712;9.192;2023-01-26T04:31:14;35.33;;;19.60;;
28459;SDS011;32528;45.712;9.192;2023-01-26T04:33:23;37.53;;;19.83;;
28459;SDS011;32528;45.712;9.192;2023-01-26T04:35:23;43.85;;;22.40;;
28459;SDS011;32528;45.712;9.192;2023-01-26T04:37:24;43.15;;;21.55;;
28459;SDS011;32528;45.712;9.192;2023-01-26T04:39:25;64.70;;;21.15;;
28459;SDS011;32528;45.712;9.192;2023-01-26T04:41:29;40.88;;;21.25;;
28459;SDS011;32528;45.712;9.192;2023-01-26T04:43:38;35.30;;;19.40;;
28459;SDS011;32528;45.712;9.192;2023-01-26T04:45:39;40.00;;;21.90;;
28459;SDS011;32528;45.712;9.192;2023-01-26T04:47:41;39.42;;;22.88;;
28459;SDS011;32528;45.712;9.192;2023-01-26T04:49:42;33.50;;;21.45;;
28459;SDS011;32528;45.712;9.192;2023-01-26T04:51:43;32.90;;;20.00;;
28459;SDS011;32528;45.712;9.192;2023-01-26T04:53:44;32.00;;;20.73;;
28459;SDS011;32528;45.712;9.192;2023-01-26T04:55:46;36.47;;;21.13;;
28459;SDS011;32528;45.712;9.192;2023-01-26T04:57:47;37.90;;;19.95;;
28459;SDS011;32528;45.712;9.192;2023-01-26T04:59:48;33.30;;;18.35;;
28459;SDS011;32528;45.712;9.192;2023-01-26T05:01:51;41.30;;;20.50;;
28459;SDS011;32528;45.712;9.192;2023-01-26T05:03:51;34.60;;;20.77;;
28459;SDS011;32528;45.712;9.192;2023-01-26T05:05:53;36.40;;;18.98;;
28459;SDS011;32528;45.712;9.192;2023-01-26T05:07:57;36.78;;;20.23;;
28459;SDS011;32528;45.712;9.192;2023-01-26T05:10:01;38.08;;;19.25;;
28459;SDS011;32528;45.712;9.192;2023-01-26T05:12:38;34.88;;;19.88;;
28459;SDS011;32528;45.712;9.192;2023-01-26T05:14:53;34.03;;;19.15;;
28459;SDS011;32528;45.712;9.192;2023-01-26T05:17:04;37.53;;;19.77;;
28459;SDS011;32528;45.712;9.192;2023-01-26T05:19:27;39.28;;;19.05;;
28459;SDS011;32528;45.712;9.192;2023-01-26T05:21:48;40.55;;;20.10;;
28459;SDS011;32528;45.712;9.192;2023-01-26T05:23:49;55.72;;;20.02;;
28459;SDS011;32528;45.712;9.192;2023-01-26T05:26:09;41.10;;;21.65;;
28459;SDS011;32528;45.712;9.192;2023-01-26T05:28:28;35.92;;;22.20;;
28459;SDS011;32528;45.712;9.192;2023-01-26T05:30:29;36.13;;;20.05;;
28459;SDS011;32528;45.712;9.192;2023-01-26T05:32:32;40.83;;;20.55;;
28459;SDS011;32528;45.712;9.192;2023-01-26T05:34:33;47.83;;;24.63;;
28459;SDS011;32528;45.712;9.192;2023-01-26T05:36:34;41.72;;;23.35;;
28459;SDS011;32528;45.712;9.192;2023-01-26T05:38:35;42.05;;;21.58;;
28459;SDS011;32528;45.712;9.192;2023-01-26T05:40:36;44.13;;;21.60;;
28459;SDS011;32528;45.712;9.192;2023-01-26T05:42:37;42.97;;;24.10;;
28459;SDS011;32528;45.712;9.192;2023-01-26T05:44:53;35.60;;;20.60;;
28459;SDS011;32528;45.712;9.192;2023-01-26T05:46:55;42.85;;;22.02;;
28459;SDS011;32528;45.712;9.192;2023-01-26T05:48:56;36.85;;;21.25;;
28459;SDS011;32528;45.712;9.192;2023-01-26T05:50:57;58.63;;;24.00;;
28459;SDS011;32528;45.712;9.192;2023-01-26T05:52:59;55.47;;;25.73;;
28459;SDS011;32528;45.712;9.192;2023-01-26T05:55:04;40.25;;;21.60;;
28459;SDS011;32528;45.712;9.192;2023-01-26T05:57:06;52.17;;;26.80;;
28459;SDS011;32528;45.712;9.192;2023-01-26T05:59:10;44.92;;;23.92;;
28459;SDS011;32528;45.712;9.192;2023-01-26T06:01:11;49.40;;;25.67;;
28459;SDS011;32528;45.712;9.192;2023-01-26T06:03:21;49.72;;;24.83;;
28459;SDS011;32528;45.712;9.192;2023-01-26T06:05:21;50.58;;;25.85;;
28459;SDS011;32528;45.712;9.192;2023-01-26T06:07:23;50.40;;;22.75;;
28459;SDS011;32528;45.712;9.192;2023-01-26T06:09:40;41.22;;;24.58;;
28459;SDS011;32528;45.712;9.192;2023-01-26T06:12:00;47.53;;;26.10;;
28459;SDS011;32528;45.712;9.192;2023-01-26T06:14:19;45.80;;;24.00;;
28459;SDS011;32528;45.712;9.192;2023-01-26T06:16:20;44.72;;;23.60;;
28459;SDS011;32528;45.712;9.192;2023-01-26T06:18:23;42.53;;;24.63;;
28459;SDS011;32528;45.712;9.192;2023-01-26T06:20:27;46.58;;;24.23;;
28459;SDS011;32528;45.712;9.192;2023-01-26T06:22:31;47.78;;;24.60;;
28459;SDS011;32528;45.712;9.192;2023-01-26T06:24:33;39.28;;;22.60;;
28459;SDS011;32528;45.712;9.192;2023-01-26T06:26:34;40.38;;;21.92;;
28459;SDS011;32528;45.712;9.192;2023-01-26T06:28:35;43.80;;;22.88;;
28459;SDS011;32528;45.712;9.192;2023-01-26T06:30:36;45.55;;;20.55;;
28459;SDS011;32528;45.712;9.192;2023-01-26T06:32:41;42.83;;;22.27;;
28459;SDS011;32528;45.712;9.192;2023-01-26T06:34:42;50.08;;;24.08;;
28459;SDS011;32528;45.712;9.192;2023-01-26T06:36:43;44.75;;;22.48;;
28459;SDS011;32528;45.712;9.192;2023-01-26T06:38:50;45.08;;;19.48;;
28459;SDS011;32528;45.712;9.192;2023-01-26T06:40:54;41.25;;;23.65;;
28459;SDS011;32528;45.712;9.192;2023-01-26T06:43:00;45.78;;;23.95;;
28459;SDS011;32528;45.712;9.192;2023-01-26T06:45:01;47.03;;;22.70;;
28459;SDS011;32528;45.712;9.192;2023-01-26T06:47:04;40.85;;;22.23;;
28459;SDS011;32528;45.712;9.192;2023-01-26T06:49:05;38.67;;;21.85;;
28459;SDS011;32528;45.712;9.192;2023-01-26T06:53:24;42.60;;;23.08;;
28459;SDS011;32528;45.712;9.192;2023-01-26T06:55:49;35.80;;;20.40;;
28459;SDS011;32528;45.712;9.192;2023-01-26T06:58:22;48.92;;;21.13;;
28459;SDS011;32528;45.712;9.192;2023-01-26T07:00:46;39.90;;;20.92;;
28459;SDS011;32528;45.712;9.192;2023-01-26T07:02:47;36.88;;;20.50;;
28459;SDS011;32528;45.712;9.192;2023-01-26T07:04:48;45.88;;;21.30;;
28459;SDS011;32528;45.712;9.192;2023-01-26T07:06:49;38.92;;;22.02;;
28459;SDS011;32528;45.712;9.192;2023-01-26T07:08:51;39.05;;;23.48;;
28459;SDS011;32528;45.712;9.192;2023-01-26T07:10:52;35.72;;;20.77;;
28459;SDS011;32528;45.712;9.192;2023-01-26T07:12:53;34.75;;;18.50;;
28459;SDS011;32528;45.712;9.192;2023-01-26T07:14:55;36.67;;;18.73;;
28459;SDS011;32528;45.712;9.192;2023-01-26T07:16:55;31.20;;;15.90;;
28459;SDS011;32528;45.712;9.192;2023-01-26T07:18:56;27.58;;;16.23;;
28459;SDS011;32528;45.712;9.192;2023-01-26T07:21:03;34.38;;;17.08;;
28459;SDS011;32528;45.712;9.192;2023-01-26T07:23:15;32.28;;;18.20;;
28459;SDS011;32528;45.712;9.192;2023-01-26T07:25:16;30.50;;;16.50;;
28459;SDS011;32528;45.712;9.192;2023-01-26T07:27:17;32.80;;;18.67;;
28459;SDS011;32528;45.712;9.192;2023-01-26T07:29:18;31.85;;;15.75;;
28459;SDS011;32528;45.712;9.192;2023-01-26T07:31:19;36.35;;;15.32;;
28459;SDS011;32528;45.712;9.192;2023-01-26T07:33:22;30.85;;;15.80;;
28459;SDS011;32528;45.712;9.192;2023-01-26T07:35:23;26.40;;;13.82;;
28459;SDS011;32528;45.712;9.192;2023-01-26T07:37:27;28.10;;;14.70;;
28459;SDS011;32528;45.712;9.192;2023-01-26T07:39:28;26.50;;;15.30;;
28459;SDS011;32528;45.712;9.192;2023-01-26T07:41:29;29.50;;;13.95;;
28459;SDS011;32528;45.712;9.192;2023-01-26T07:43:31;32.90;;;14.55;;
28459;SDS011;32528;45.712;9.192;2023-01-26T07:45:33;25.02;;;12.48;;
28459;SDS011;32528;45.712;9.192;2023-01-26T07:47:35;25.25;;;14.05;;
28459;SDS011;32528;45.712;9.192;2023-01-26T07:49:36;29.25;;;14.02;;
28459;SDS011;32528;45.712;9.192;2023-01-26T07:51:37;33.20;;;14.13;;
28459;SDS011;32528;45.712;9.192;2023-01-26T07:53:41;32.58;;;15.07;;
28459;SDS011;32528;45.712;9.192;2023-01-26T07:55:43;31.85;;;12.15;;
28459;SDS011;32528;45.712;9.192;2023-01-26T07:57:47;22.70;;;12.73;;
28459;SDS011;32528;45.712;9.192;2023-01-26T07:59:48;34.28;;;12.68;;
28459;SDS011;32528;45.712;9.192;2023-01-26T08:01:49;23.02;;;12.23;;
28459;SDS011;32528;45.712;9.192;2023-01-26T08:03:51;19.98;;;12.02;;
28459;SDS011;32528;45.712;9.192;2023-01-26T08:05:52;25.38;;;12.07;;
28459;SDS011;32528;45.712;9.192;2023-01-26T08:07:56;24.33;;;12.98;;
28459;SDS011;32528;45.712;9.192;2023-01-26T08:09:58;28.98;;;12.57;;
28459;SDS011;32528;45.712;9.192;2023-01-26T08:11:59;27.23;;;13.45;;
28459;SDS011;32528;45.712;9.192;2023-01-26T08:14:00;24.73;;;12.20;;
28459;SDS011;32528;45.712;9.192;2023-01-26T08:16:08;20.58;;;11.13;;
28459;SDS011;32528;45.712;9.192;2023-01-26T08:18:11;29.20;;;13.20;;
28459;SDS011;32528;45.712;9.192;2023-01-26T08:20:11;24.67;;;11.85;;
28459;SDS011;32528;45.712;9.192;2023-01-26T08:22:13;27.83;;;10.98;;
28459;SDS011;32528;45.712;9.192;2023-01-26T08:24:13;22.65;;;11.45;;
28459;SDS011;32528;45.712;9.192;2023-01-26T08:26:14;20.67;;;11.15;;
28459;SDS011;32528;45.712;9.192;2023-01-26T08:28:17;35.22;;;11.90;;
28459;SDS011;32528;45.712;9.192;2023-01-26T08:30:17;22.85;;;11.27;;
28459;SDS011;32528;45.712;9.192;2023-01-26T08:32:18;29.77;;;12.18;;
28459;SDS011;32528;45.712;9.192;2023-01-26T08:34:19;19.13;;;9.95;;
28459;SDS011;32528;45.712;9.192;2023-01-26T08:36:25;17.38;;;8.80;;
28459;SDS011;32528;45.712;9.192;2023-01-26T08:38:28;18.25;;;10.05;;
28459;SDS011;32528;45.712;9.192;2023-01-26T08:40:30;29.05;;;12.07;;
28459;SDS011;32528;45.712;9.192;2023-01-26T08:42:31;21.70;;;10.32;;
28459;SDS011;32528;45.712;9.192;2023-01-26T08:44:32;23.77;;;10.50;;
28459;SDS011;32528;45.712;9.192;2023-01-26T08:46:33;22.17;;;11.20;;
28459;SDS011;32528;45.712;9.192;2023-01-26T08:48:34;18.88;;;10.85;;
28459;SDS011;32528;45.712;9.192;2023-01-26T08:50:35;17.27;;;10.65;;
28459;SDS011;32528;45.712;9.192;2023-01-26T08:52:35;17.40;;;10.10;;
28459;SDS011;32528;45.712;9.192;2023-01-26T08:54:36;27.08;;;12.30;;
28459;SDS011;32528;45.712;9.192;2023-01-26T08:56:37;23.92;;;12.18;;
28459;SDS011;32528;45.712;9.192;2023-01-26T08:58:38;21.05;;;10.77;;
28459;SDS011;32528;45.712;9.192;2023-01-26T09:00:39;24.25;;;10.88;;
28459;SDS011;32528;45.712;9.192;2023-01-26T09:02:40;19.13;;;9.90;;
28459;SDS011;32528;45.712;9.192;2023-01-26T09:04:41;16.90;;;10.13;;
28459;SDS011;32528;45.712;9.192;2023-01-26T09:06:42;19.60;;;10.38;;
28459;SDS011;32528;45.712;9.192;2023-01-26T09:08:43;24.92;;;10.57;;
28459;SDS011;32528;45.712;9.192;2023-01-26T09:10:44;20.17;;;9.52;;
28459;SDS011;32528;45.712;9.192;2023-01-26T09:12:45;19.45;;;10.38;;
28459;SDS011;32528;45.712;9.192;2023-01-26T09:14:46;25.73;;;11.05;;
28459;SDS011;32528;45.712;9.192;2023-01-26T09:16:47;23.33;;;9.50;;
28459;SDS011;32528;45.712;9.192;2023-01-26T09:18:48;17.58;;;10.15;;
28459;SDS011;32528;45.712;9.192;2023-01-26T09:20:50;22.13;;;11.57;;
28459;SDS011;32528;45.712;9.192;2023-01-26T09:22:50;25.73;;;10.50;;
28459;SDS011;32528;45.712;9.192;2023-01-26T09:24:51;21.13;;;11.35;;
28459;SDS011;32528;45.712;9.192;2023-01-26T09:26:52;21.77;;;11.13;;
28459;SDS011;32528;45.712;9.192;2023-01-26T09:28:53;26.52;;;13.07;;
28459;SDS011;32528;45.712;9.192;2023-01-26T09:30:53;24.55;;;11.05;;
28459;SDS011;32528;45.712;9.192;2023-01-26T09:32:58;25.52;;;11.23;;
28459;SDS011;32528;45.712;9.192;2023-01-26T09:34:59;24.40;;;11.57;;
28459;SDS011;32528;45.712;9.192;2023-01-26T09:37:00;25.75;;;11.07;;
28459;SDS011;32528;45.712;9.192;2023-01-26T09:39:01;29.23;;;10.20;;
28459;SDS011;32528;45.712;9.192;2023-01-26T09:45:32;19.38;;;10.30;;
28459;SDS011;32528;45.712;9.192;2023-01-26T09:50:09;28.67;;;9.80;;
28459;SDS011;32528;45.712;9.192;2023-01-26T09:52:17;20.02;;;9.25;;
28459;SDS011;32528;45.712;9.192;2023-01-26T09:54:34;17.40;;;9.40;;
28459;SDS011;32528;45.712;9.192;2023-01-26T09:56:39;27.25;;;11.27;;
28459;SDS011;32528;45.712;9.192;2023-01-26T09:58:41;24.52;;;9.93;;
28459;SDS011;32528;45.712;9.192;2023-01-26T10:00:46;19.50;;;10.43;;
28459;SDS011;32528;45.712;9.192;2023-01-26T10:04:55;17.42;;;9.32;;
28459;SDS011;32528;45.712;9.192;2023-01-26T10:07:01;17.73;;;9.45;;
28459;SDS011;32528;45.712;9.192;2023-01-26T10:09:23;20.45;;;10.38;;
28459;SDS011;32528;45.712;9.192;2023-01-26T10:11:31;17.45;;;10.45;;
28459;SDS011;32528;45.712;9.192;2023-01-26T10:15:38;16.88;;;10.13;;
28459;SDS011;32528;45.712;9.192;2023-01-26T10:17:42;22.73;;;10.50;;
28459;SDS011;32528;45.712;9.192;2023-01-26T10:20:30;17.98;;;10.02;;
28459;SDS011;32528;45.712;9.192;2023-01-26T10:22:49;15.40;;;9.25;;
28459;SDS011;32528;45.712;9.192;2023-01-26T10:24:53;21.25;;;10.27;;
28459;SDS011;32528;45.712;9.192;2023-01-26T10:26:58;20.48;;;8.88;;
28459;SDS011;32528;45.712;9.192;2023-01-26T10:28:59;21.35;;;9.50;;
28459;SDS011;32528;45.712;9.192;2023-01-26T10:31:01;29.42;;;9.02;;
28459;SDS011;32528;45.712;9.192;2023-01-26T10:33:08;19.38;;;9.02;;
28459;SDS011;32528;45.712;9.192;2023-01-26T10:35:21;28.02;;;8.93;;
28459;SDS011;32528;45.712;9.192;2023-01-26T10:37:27;19.30;;;9.85;;
28459;SDS011;32528;45.712;9.192;2023-01-26T10:39:29;16.92;;;7.78;;
28459;SDS011;32528;45.712;9.192;2023-01-26T10:41:29;25.25;;;9.88;;
28459;SDS011;32528;45.712;9.192;2023-01-26T10:43:31;23.13;;;8.10;;
28459;SDS011;32528;45.712;9.192;2023-01-26T10:45:42;22.40;;;9.90;;
28459;SDS011;32528;45.712;9.192;2023-01-26T10:47:53;22.57;;;9.17;;
28459;SDS011;32528;45.712;9.192;2023-01-26T10:50:12;15.50;;;8.00;;
28459;SDS011;32528;45.712;9.192;2023-01-26T10:52:21;24.58;;;8.18;;
28459;SDS011;32528;45.712;9.192;2023-01-26T10:54:25;18.02;;;8.95;;
28459;SDS011;32528;45.712;9.192;2023-01-26T10:56:26;21.88;;;8.55;;
28459;SDS011;32528;45.712;9.192;2023-01-26T11:00:46;21.13;;;9.20;;
28459;SDS011;32528;45.712;9.192;2023-01-26T11:03:03;16.60;;;8.50;;
28459;SDS011;32528;45.712;9.192;2023-01-26T11:09:28;18.30;;;8.75;;
28459;SDS011;32528;45.712;9.192;2023-01-26T11:11:30;19.80;;;8.80;;
28459;SDS011;32528;45.712;9.192;2023-01-26T11:13:31;18.50;;;7.97;;
28459;SDS011;32528;45.712;9.192;2023-01-26T11:15:36;14.13;;;8.05;;
28459;SDS011;32528;45.712;9.192;2023-01-26T11:22:04;22.58;;;9.80;;
28459;SDS011;32528;45.712;9.192;2023-01-26T11:30:47;19.77;;;7.75;;
28459;SDS011;32528;45.712;9.192;2023-01-26T11:37:45;21.63;;;7.25;;
28459;SDS011;32528;45.712;9.192;2023-01-26T11:39:58;14.68;;;8.63;;
28459;SDS011;32528;45.712;9.192;2023-01-26T11:42:23;15.80;;;8.25;;
28459;SDS011;32528;45.712;9.192;2023-01-26T11:54:09;25.90;;;10.02;;
28459;SDS011;32528;45.712;9.192;2023-01-26T11:58:54;25.48;;;11.10;;
28459;SDS011;32528;45.712;9.192;2023-01-26T12:01:02;21.33;;;11.05;;
28459;SDS011;32528;45.712;9.192;2023-01-26T12:03:18;25.75;;;11.55;;
28459;SDS011;32528;45.712;9.192;2023-01-26T12:05:36;21.73;;;10.70;;
28459;SDS011;32528;45.712;9.192;2023-01-26T12:07:55;23.35;;;9.93;;
28459;SDS011;32528;45.712;9.192;2023-01-26T12:10:02;23.67;;;10.67;;
28459;SDS011;32528;45.712;9.192;2023-01-26T12:14:43;35.10;;;10.45;;
28459;SDS011;32528;45.712;9.192;2023-01-26T12:21:31;26.08;;;12.40;;
28459;SDS011;32528;45.712;9.192;2023-01-26T12:25:56;26.08;;;12.15;;
28459;SDS011;32528;45.712;9.192;2023-01-26T12:32:26;19.98;;;11.05;;
28459;SDS011;32528;45.712;9.192;2023-01-26T12:34:27;34.03;;;12.77;;
28459;SDS011;32528;45.712;9.192;2023-01-26T12:44:24;28.02;;;13.20;;
28459;SDS011;32528;45.712;9.192;2023-01-26T12:46:25;25.73;;;13.18;;
28459;SDS011;32528;45.712;9.192;2023-01-26T12:48:41;28.00;;;11.60;;
28459;SDS011;32528;45.712;9.192;2023-01-26T12:51:05;34.83;;;14.32;;
28459;SDS011;32528;45.712;9.192;2023-01-26T12:53:21;22.08;;;11.90;;
28459;SDS011;32528;45.712;9.192;2023-01-26T12:57:37;26.38;;;13.45;;
28459;SDS011;32528;45.712;9.192;2023-01-26T12:59:43;31.58;;;13.23;;
28459;SDS011;32528;45.712;9.192;2023-01-26T13:01:45;30.23;;;14.68;;
28459;SDS011;32528;45.712;9.192;2023-01-26T13:03:59;37.08;;;14.23;;
28459;SDS011;32528;45.712;9.192;2023-01-26T13:10:33;32.92;;;16.60;;
28459;SDS011;32528;45.712;9.192;2023-01-26T13:14:58;19.58;;;11.98;;
28459;SDS011;32528;45.712;9.192;2023-01-26T13:21:43;39.42;;;17.08;;
28459;SDS011;32528;45.712;9.192;2023-01-26T13:23:44;25.52;;;13.90;;
28459;SDS011;32528;45.712;9.192;2023-01-26T13:25:47;31.63;;;14.18;;
28459;SDS011;32528;45.712;9.192;2023-01-26T13:28:12;30.63;;;13.93;;
28459;SDS011;32528;45.712;9.192;2023-01-26T13:30:37;25.45;;;14.05;;
28459;SDS011;32528;45.712;9.192;2023-01-26T13:32:49;28.77;;;15.23;;
28459;SDS011;32528;45.712;9.192;2023-01-26T13:34:54;34.13;;;16.35;;
28459;SDS011;32528;45.712;9.192;2023-01-26T13:37:10;25.87;;;15.30;;
28459;SDS011;32528;45.712;9.192;2023-01-26T13:41:21;26.20;;;13.85;;
28459;SDS011;32528;45.712;9.192;2023-01-26T13:43:34;29.88;;;15.25;;
28459;SDS011;32528;45.712;9.192;2023-01-26T13:48:19;27.42;;;14.40;;
28459;SDS011;32528;45.712;9.192;2023-01-26T13:50:32;30.20;;;14.38;;